North Wildwood, New Jersey
Current Conditions -  °F | °C
As of 11:55 PM on Friday 19 Dec 2014 (Local Time) from KWWD Reporting Station
Clear Clear  
Wind Chill: 28°   Ceiling: Unl
Heat Index: 28°   Visibility: 10mi
Dew Point: 19°   Wind: 3mph
Humidity: 69%   Direction: 360°N
Pressure: 30.22"   Gusts: NA
Location:  38.9808°N, 74.8281°W
Report Text: KWWD 200455Z AUTO 36003KT 10SM CLR M02/M07 A3022 RMK AO1
Loading
Personal Weather Stations






























Interactive Weather Map New forecast layout! Learn more

10-Day Weather Forecast

Advertisements
Track Severe Weather on mobile